createdAt,value
2022-12-20T00:00:35.955Z,943.16
2022-12-20T00:01:36.220Z,943.14
2022-12-20T00:02:36.476Z,943.12
2022-12-20T00:03:37.120Z,943.09
2022-12-20T00:04:37.605Z,943.14
2022-12-20T00:05:38.251Z,943.08
2022-12-20T00:06:39.249Z,943.09
2022-12-20T00:07:39.515Z,943.06
2022-12-20T00:08:40.050Z,943.01
2022-12-20T00:09:40.965Z,943.02
2022-12-20T00:10:41.908Z,943.05
2022-12-20T00:11:42.088Z,943.06
2022-12-20T00:12:42.313Z,943.06
2022-12-20T00:13:43.293Z,943.01
2022-12-20T00:14:43.785Z,943.04
2022-12-20T00:15:44.727Z,942.99
2022-12-20T00:16:44.949Z,943.06
2022-12-20T00:17:45.923Z,943
2022-12-20T00:18:46.941Z,943.08
2022-12-20T00:19:47.435Z,943.03
2022-12-20T00:20:47.925Z,943.08
2022-12-20T00:21:48.073Z,943.05
2022-12-20T00:22:48.275Z,943.08
2022-12-20T00:23:49.235Z,943.11
2022-12-20T00:24:49.925Z,943.1
2022-12-20T00:25:50.185Z,943.13
2022-12-20T00:26:50.695Z,943.14
2022-12-20T00:27:50.937Z,943.13
2022-12-20T00:28:51.151Z,943.1
2022-12-20T00:29:51.682Z,943.08
2022-12-20T00:30:52.220Z,943.11
2022-12-20T00:31:52.664Z,943.14
2022-12-20T00:32:53.312Z,943.12
2022-12-20T00:33:54.255Z,943.14
2022-12-20T00:34:54.775Z,943.14
2022-12-20T00:35:55.070Z,943.14
2022-12-20T00:36:56.093Z,943.22
2022-12-20T00:37:56.580Z,943.23
2022-12-20T00:38:56.880Z,943.2
2022-12-20T00:39:57.093Z,943.22
2022-12-20T00:40:57.321Z,943.2
2022-12-20T00:41:57.961Z,943.22
2022-12-20T00:42:58.712Z,943.23
2022-12-20T00:43:58.995Z,943.24
2022-12-20T00:44:59.966Z,943.23
2022-12-20T00:46:01.011Z,943.15
2022-12-20T00:47:02.073Z,943.13
2022-12-20T00:48:02.351Z,943.14
2022-12-20T00:49:02.861Z,943.15
2022-12-20T00:50:03.767Z,943.16
2022-12-20T00:51:04.676Z,943.18
2022-12-20T00:52:05.007Z,943.19
2022-12-20T00:53:05.932Z,943.2
2022-12-20T00:54:06.770Z,943.24
2022-12-20T00:55:06.984Z,943.19
2022-12-20T00:56:07.907Z,943.2
2022-12-20T00:57:08.709Z,943.21
2022-12-20T00:58:08.940Z,943.21
2022-12-20T00:59:09.214Z,943.19
2022-12-20T01:00:09.701Z,943.17
2022-12-20T01:01:10.360Z,943.19
2022-12-20T01:02:10.697Z,943.23
2022-12-20T01:03:11.172Z,943.24
2022-12-20T01:04:11.163Z,943.32
2022-12-20T01:05:11.859Z,943.28
2022-12-20T01:06:12.516Z,943.25
2022-12-20T01:07:13.481Z,943.22
2022-12-20T01:08:13.972Z,943.22
2022-12-20T01:09:14.245Z,943.23
2022-12-20T01:10:14.775Z,943.24
2022-12-20T01:11:14.966Z,943.22
2022-12-20T01:12:15.426Z,943.25
2022-12-20T01:13:16.364Z,943.24
2022-12-20T01:14:17.329Z,943.23
2022-12-20T01:15:17.971Z,943.18
2022-12-20T01:16:18.235Z,943.15
2022-12-20T01:17:18.696Z,943.13
2022-12-20T01:18:19.651Z,943.08
2022-12-20T01:19:20.169Z,943.1
2022-12-20T01:20:21.098Z,943.09
2022-12-20T01:21:22.019Z,943.08
2022-12-20T01:22:22.400Z,943.11
2022-12-20T01:23:23.188Z,943.1
2022-12-20T01:24:23.439Z,943.09
2022-12-20T01:25:23.672Z,943.05
2022-12-20T01:26:23.856Z,943.02
2022-12-20T01:27:24.615Z,943.02
2022-12-20T01:28:25.548Z,943.05
2022-12-20T01:29:26.223Z,943.06
2022-12-20T01:30:26.427Z,943.09
2022-12-20T01:31:26.687Z,943.08
2022-12-20T01:32:26.847Z,943.08
2022-12-20T01:33:27.511Z,943.13
2022-12-20T01:34:28.481Z,943.13
2022-12-20T01:35:29.416Z,943.11
2022-12-20T01:36:29.660Z,943.11
2022-12-20T01:37:29.904Z,943.11
2022-12-20T01:38:30.154Z,943.11
2022-12-20T01:39:30.805Z,943.11
2022-12-20T01:40:31.741Z,943.11
2022-12-20T01:41:31.942Z,943.08
2022-12-20T01:42:32.039Z,943.03
2022-12-20T01:43:32.245Z,943.03
2022-12-20T01:44:32.395Z,943.04
2022-12-20T01:45:32.903Z,943.1
2022-12-20T01:46:33.600Z,943.11
2022-12-20T01:47:34.209Z,943.12
2022-12-20T01:48:34.414Z,943.13
2022-12-20T01:49:34.665Z,943.08
2022-12-20T01:50:35.641Z,943.1
2022-12-20T01:51:35.856Z,943.08
2022-12-20T01:52:36.323Z,943.06
2022-12-20T01:53:36.533Z,943.08
2022-12-20T01:54:36.823Z,943.12
2022-12-20T01:55:37.056Z,943.12
2022-12-20T01:56:37.288Z,943.14
2022-12-20T01:57:37.514Z,943.09
2022-12-20T01:58:37.756Z,943.06
2022-12-20T01:59:37.981Z,943.1
2022-12-20T02:00:38.204Z,943.08
2022-12-20T02:01:38.619Z,943.09
2022-12-20T02:02:39.078Z,943.14
2022-12-20T02:03:39.055Z,943.15
2022-12-20T02:04:39.941Z,943.12
2022-12-20T02:05:40.151Z,943.12
2022-12-20T02:06:40.367Z,943.1
2022-12-20T02:07:41.315Z,943.09
2022-12-20T02:08:41.539Z,943.08
2022-12-20T02:09:42.019Z,943.04
2022-12-20T02:10:42.966Z,942.98
2022-12-20T02:11:43.358Z,943.01
2022-12-20T02:12:44.130Z,943
2022-12-20T02:13:45.039Z,943
2022-12-20T02:14:45.733Z,942.98
2022-12-20T02:15:45.984Z,942.89
2022-12-20T02:16:46.251Z,942.91
2022-12-20T02:17:47.271Z,942.94
2022-12-20T02:18:47.499Z,942.89
2022-12-20T02:19:47.743Z,942.9
2022-12-20T02:20:48.670Z,942.87
2022-12-20T02:21:49.596Z,942.85
2022-12-20T02:22:50.240Z,942.84
2022-12-20T02:23:50.444Z,942.86
2022-12-20T02:24:51.460Z,942.81
2022-12-20T02:25:51.670Z,942.83
2022-12-20T02:26:51.871Z,942.83
2022-12-20T02:27:52.115Z,942.78
2022-12-20T02:28:52.344Z,942.79
2022-12-20T02:29:52.569Z,942.83
2022-12-20T02:30:52.776Z,942.8
2022-12-20T02:31:53.059Z,942.81
2022-12-20T02:32:53.635Z,942.81
2022-12-20T02:33:54.608Z,942.79
2022-12-20T02:34:55.278Z,942.78
2022-12-20T02:35:56.207Z,942.77
2022-12-20T02:36:57.125Z,942.81
2022-12-20T02:37:57.635Z,942.79
2022-12-20T02:38:57.826Z,942.8
2022-12-20T02:39:58.063Z,942.82
2022-12-20T02:40:58.575Z,942.81
2022-12-20T02:41:58.796Z,942.79
2022-12-20T02:42:59.445Z,942.8
2022-12-20T02:43:59.644Z,942.82
2022-12-20T02:45:00.329Z,942.83
2022-12-20T02:46:00.612Z,942.85
2022-12-20T02:47:01.382Z,942.85
2022-12-20T02:48:02.321Z,942.87
2022-12-20T02:49:03.233Z,942.89
2022-12-20T02:50:03.750Z,942.92
2022-12-20T02:51:04.665Z,942.9
2022-12-20T02:52:05.604Z,942.91
2022-12-20T02:53:06.083Z,942.91
2022-12-20T02:54:06.329Z,942.84
2022-12-20T02:55:06.473Z,942.81
2022-12-20T02:56:07.413Z,942.77
2022-12-20T02:57:07.915Z,942.79
2022-12-20T02:58:08.122Z,942.78
2022-12-20T02:59:09.051Z,942.74
2022-12-20T03:00:09.656Z,942.73
2022-12-20T03:01:10.204Z,942.76
2022-12-20T03:02:11.059Z,942.72
2022-12-20T03:03:11.460Z,942.79
2022-12-20T03:04:12.214Z,942.84
2022-12-20T03:05:12.790Z,942.76
2022-12-20T03:06:13.715Z,942.73
2022-12-20T03:07:14.306Z,942.75
2022-12-20T03:08:15.340Z,942.79
2022-12-20T03:09:16.019Z,942.8
2022-12-20T03:10:16.300Z,942.78
2022-12-20T03:11:16.891Z,942.75
2022-12-20T03:12:17.580Z,942.75
2022-12-20T03:13:18.296Z,942.79
2022-12-20T03:14:19.243Z,942.77
2022-12-20T03:15:19.963Z,942.82
2022-12-20T03:16:20.236Z,942.82
2022-12-20T03:17:20.474Z,942.82
2022-12-20T03:18:21.462Z,942.82
2022-12-20T03:19:22.090Z,942.85
2022-12-20T03:20:23.044Z,942.82
2022-12-20T03:21:23.651Z,942.79
2022-12-20T03:22:23.855Z,942.73
2022-12-20T03:23:24.256Z,942.68
2022-12-20T03:24:24.535Z,942.71
2022-12-20T03:25:24.793Z,942.64
2022-12-20T03:26:25.771Z,942.67
2022-12-20T03:27:26.463Z,942.67
2022-12-20T03:28:27.406Z,942.64
2022-12-20T03:29:28.144Z,942.67
2022-12-20T03:30:28.368Z,942.65
2022-12-20T03:31:29.038Z,942.62
2022-12-20T03:32:29.273Z,942.6
2022-12-20T03:33:30.006Z,942.63
2022-12-20T03:34:30.995Z,942.56
2022-12-20T03:35:31.264Z,942.53
2022-12-20T03:36:31.482Z,942.53
2022-12-20T03:37:32.140Z,942.47
2022-12-20T03:38:32.646Z,942.44
2022-12-20T03:39:32.844Z,942.46
2022-12-20T03:40:33.091Z,942.45
2022-12-20T03:41:34.019Z,942.43
2022-12-20T03:42:34.292Z,942.41
2022-12-20T03:43:35.353Z,942.36
2022-12-20T03:44:36.109Z,942.27
2022-12-20T03:45:37.007Z,942.27
2022-12-20T03:46:37.489Z,942.24
2022-12-20T03:47:37.986Z,942.26
2022-12-20T03:48:38.950Z,942.28
2022-12-20T03:49:39.471Z,942.3
2022-12-20T03:50:39.701Z,942.33
2022-12-20T03:51:40.337Z,942.3
2022-12-20T03:52:41.273Z,942.25
2022-12-20T03:53:41.911Z,942.26
2022-12-20T03:54:42.151Z,942.27
2022-12-20T03:55:45.237Z,942.24
2022-12-20T03:56:43.546Z,942.17
2022-12-20T03:57:44.198Z,942.2
2022-12-20T03:58:44.416Z,942.15
2022-12-20T03:59:44.655Z,942.17
2022-12-20T04:00:45.435Z,942.19
2022-12-20T04:01:46.581Z,942.18
2022-12-20T04:02:47.667Z,942.27
2022-12-20T04:03:48.694Z,942.22
2022-12-20T04:04:49.358Z,942.29
2022-12-20T04:05:49.875Z,942.26
2022-12-20T04:06:50.804Z,942.26
2022-12-20T04:07:51.751Z,942.3
2022-12-20T04:08:51.996Z,942.25
2022-12-20T04:09:52.187Z,942.3
2022-12-20T04:10:52.453Z,942.27
2022-12-20T04:11:52.654Z,942.33
2022-12-20T04:12:53.318Z,942.33
2022-12-20T04:13:53.681Z,942.37
2022-12-20T04:14:54.050Z,942.34
2022-12-20T04:15:59.944Z,942.31
2022-12-20T04:16:54.811Z,942.35
2022-12-20T04:17:55.753Z,942.36
2022-12-20T04:18:55.963Z,942.33
2022-12-20T04:19:56.181Z,942.36
2022-12-20T04:20:56.471Z,942.37
2022-12-20T04:22:02.872Z,942.33
2022-12-20T04:22:57.872Z,942.37
2022-12-20T04:23:58.241Z,942.31
2022-12-20T04:24:59.156Z,942.35
2022-12-20T04:25:59.715Z,942.34
2022-12-20T04:27:00.251Z,942.3
2022-12-20T04:28:01.184Z,942.33
2022-12-20T04:29:02.126Z,942.35
2022-12-20T04:30:02.322Z,942.35
2022-12-20T04:31:03.320Z,942.37
2022-12-20T04:32:03.902Z,942.37
2022-12-20T04:33:04.174Z,942.39
2022-12-20T04:34:04.479Z,942.37
2022-12-20T04:35:05.394Z,942.36
2022-12-20T04:36:05.906Z,942.38
2022-12-20T04:37:06.569Z,942.36
2022-12-20T04:38:07.545Z,942.37
2022-12-20T04:39:07.781Z,942.33
2022-12-20T04:40:07.995Z,942.28
2022-12-20T04:41:08.243Z,942.3
2022-12-20T04:42:09.169Z,942.29
2022-12-20T04:43:10.117Z,942.23
2022-12-20T04:44:10.261Z,942.24
2022-12-20T04:45:10.750Z,942.2
2022-12-20T04:46:11.258Z,942.21
2022-12-20T04:47:11.709Z,942.22
2022-12-20T04:48:37.478Z,942.24
2022-12-20T04:49:12.045Z,942.19
2022-12-20T04:50:12.334Z,942.26
2022-12-20T04:51:13.073Z,942.2
2022-12-20T04:52:13.292Z,942.18
2022-12-20T04:53:13.790Z,942.2
2022-12-20T04:54:14.144Z,942.19
2022-12-20T04:55:15.094Z,942.11
2022-12-20T04:56:15.347Z,942.09
2022-12-20T04:57:15.767Z,942.07
2022-12-20T04:58:16.434Z,942.04
2022-12-20T04:59:16.950Z,941.97
2022-12-20T05:00:17.633Z,941.98
2022-12-20T05:01:18.684Z,941.94
2022-12-20T05:02:19.476Z,941.93
2022-12-20T05:03:20.408Z,941.93
2022-12-20T05:04:21.215Z,941.91
2022-12-20T05:05:22.115Z,941.95
2022-12-20T05:06:22.793Z,941.88
2022-12-20T05:07:23.730Z,941.87
2022-12-20T05:08:24.674Z,941.88
2022-12-20T05:09:25.333Z,941.91
2022-12-20T05:10:26.269Z,941.93
2022-12-20T05:11:26.812Z,941.91
2022-12-20T05:12:27.186Z,941.97
2022-12-20T05:13:27.560Z,942
2022-12-20T05:14:27.747Z,941.97
2022-12-20T05:15:28.701Z,941.97
2022-12-20T05:16:28.868Z,941.93
2022-12-20T05:17:29.706Z,941.96
2022-12-20T05:18:30.642Z,941.92
2022-12-20T05:19:30.949Z,941.91
2022-12-20T05:20:31.872Z,941.86
2022-12-20T05:21:32.420Z,941.87
2022-12-20T05:22:32.622Z,941.89
2022-12-20T05:23:32.848Z,941.9
2022-12-20T05:24:33.274Z,941.95
2022-12-20T05:25:34.222Z,941.95
2022-12-20T05:26:34.498Z,941.99
2022-12-20T05:27:35.135Z,942
2022-12-20T05:28:35.627Z,941.92
2022-12-20T05:29:36.534Z,941.9
2022-12-20T05:30:37.550Z,941.85
2022-12-20T05:31:38.282Z,941.8
2022-12-20T05:32:38.627Z,941.8
2022-12-20T05:33:39.144Z,941.75
2022-12-20T05:34:39.935Z,941.73
2022-12-20T05:35:40.486Z,941.68
2022-12-20T05:36:41.443Z,941.76
2022-12-20T05:37:42.404Z,941.81
2022-12-20T05:38:43.358Z,941.85
2022-12-20T05:39:43.819Z,941.85
2022-12-20T05:40:44.738Z,941.85
2022-12-20T05:41:45.806Z,941.82
2022-12-20T05:42:46.363Z,941.84
2022-12-20T05:43:47.288Z,941.82
2022-12-20T05:44:47.617Z,941.82
2022-12-20T05:45:48.551Z,941.79
2022-12-20T05:46:49.054Z,941.74
2022-12-20T05:47:49.529Z,941.67
2022-12-20T05:48:49.888Z,941.67
2022-12-20T05:49:50.834Z,941.68
2022-12-20T05:50:51.688Z,941.7
2022-12-20T05:51:52.334Z,941.78
2022-12-20T05:52:52.541Z,941.8
2022-12-20T05:53:53.113Z,941.79
2022-12-20T05:54:53.613Z,941.82
2022-12-20T05:55:54.560Z,941.77
2022-12-20T05:56:55.578Z,941.74
2022-12-20T05:57:56.242Z,941.72
2022-12-20T05:58:56.453Z,941.72
2022-12-20T05:59:56.847Z,941.72
2022-12-20T06:00:57.778Z,941.79
2022-12-20T06:01:58.528Z,941.81
2022-12-20T06:02:59.094Z,941.79
2022-12-20T06:03:59.327Z,941.76
2022-12-20T06:04:59.751Z,941.75
2022-12-20T06:05:59.982Z,941.74
2022-12-20T06:07:00.098Z,941.68
2022-12-20T06:08:00.314Z,941.67
2022-12-20T06:09:01.016Z,941.7
2022-12-20T06:10:01.259Z,941.68
2022-12-20T06:11:01.471Z,941.69
2022-12-20T06:12:02.559Z,941.68
2022-12-20T06:13:03.224Z,941.72
2022-12-20T06:14:04.140Z,941.69
2022-12-20T06:15:04.999Z,941.71
2022-12-20T06:16:05.755Z,941.74
2022-12-20T06:17:06.027Z,941.75
2022-12-20T06:18:06.686Z,941.77
2022-12-20T06:19:07.638Z,941.75
2022-12-20T06:20:08.136Z,941.76
2022-12-20T06:21:08.646Z,941.75
2022-12-20T06:22:09.643Z,941.75
2022-12-20T06:23:09.948Z,941.74
2022-12-20T06:24:10.903Z,941.67
2022-12-20T06:25:11.600Z,941.69
2022-12-20T06:26:12.310Z,941.7
2022-12-20T06:27:12.848Z,941.65
2022-12-20T06:28:13.177Z,941.67
2022-12-20T06:29:13.405Z,941.68
2022-12-20T06:30:14.336Z,941.71
2022-12-20T06:31:15.012Z,941.67
2022-12-20T06:32:15.314Z,941.69
2022-12-20T06:33:16.257Z,941.63
2022-12-20T06:34:17.169Z,941.64
2022-12-20T06:35:17.761Z,941.59
2022-12-20T06:36:18.123Z,941.53
2022-12-20T06:37:18.346Z,941.52
2022-12-20T06:38:18.558Z,941.53
2022-12-20T06:39:18.931Z,941.56
2022-12-20T06:40:19.176Z,941.52
2022-12-20T06:41:19.382Z,941.54
2022-12-20T06:42:20.361Z,941.55
2022-12-20T06:43:21.001Z,941.49
2022-12-20T06:44:21.929Z,941.53
2022-12-20T06:45:22.582Z,941.51
2022-12-20T06:46:22.942Z,941.55
2022-12-20T06:47:23.540Z,941.53
2022-12-20T06:48:24.185Z,941.51
2022-12-20T06:49:24.429Z,941.53
2022-12-20T06:50:25.384Z,941.56
2022-12-20T06:51:26.330Z,941.56
2022-12-20T06:52:26.867Z,941.56
2022-12-20T06:53:27.263Z,941.54
2022-12-20T06:54:27.905Z,941.53
2022-12-20T06:55:28.224Z,941.53
2022-12-20T06:56:29.257Z,941.54
2022-12-20T06:57:30.258Z,941.5
2022-12-20T06:58:31.199Z,941.45
2022-12-20T06:59:32.153Z,941.46
2022-12-20T07:00:32.648Z,941.42
2022-12-20T07:01:33.242Z,941.44
2022-12-20T07:02:34.248Z,941.41
2022-12-20T07:03:34.281Z,941.46
2022-12-20T07:04:34.418Z,941.48
2022-12-20T07:05:35.206Z,941.47
2022-12-20T07:06:35.715Z,941.41
2022-12-20T07:07:40.740Z,941.4
2022-12-20T07:08:36.552Z,941.41
2022-12-20T07:09:37.483Z,941.4
2022-12-20T07:10:37.855Z,941.38
2022-12-20T07:11:38.464Z,941.4
2022-12-20T07:12:42.454Z,941.38
2022-12-20T07:13:39.711Z,941.36
2022-12-20T07:14:40.205Z,941.35
2022-12-20T07:15:40.524Z,941.39
2022-12-20T07:16:41.631Z,941.38
2022-12-20T07:17:42.041Z,941.37
2022-12-20T07:18:42.534Z,941.37
2022-12-20T07:19:47.177Z,941.37
2022-12-20T07:20:43.787Z,941.38
2022-12-20T07:21:44.711Z,941.4
2022-12-20T07:22:45.008Z,941.44
2022-12-20T07:23:45.225Z,941.44
2022-12-20T07:24:45.639Z,941.45
2022-12-20T07:25:46.075Z,941.45
2022-12-20T07:26:46.588Z,941.49
2022-12-20T07:27:46.865Z,941.46
2022-12-20T07:28:47.652Z,941.46
2022-12-20T07:29:48.579Z,941.49
2022-12-20T07:30:49.236Z,941.49
2022-12-20T07:31:50.368Z,941.52
2022-12-20T07:32:50.979Z,941.5
2022-12-20T07:33:51.200Z,941.49
2022-12-20T07:34:51.847Z,941.54
2022-12-20T07:35:54.558Z,941.56
2022-12-20T07:36:53.336Z,941.57
2022-12-20T07:37:54.327Z,941.58
2022-12-20T07:38:55.334Z,941.56
2022-12-20T07:39:56.045Z,941.57
2022-12-20T07:40:57.036Z,941.56
2022-12-20T07:41:57.708Z,941.6
2022-12-20T07:42:58.574Z,941.58
2022-12-20T07:43:58.939Z,941.59
2022-12-20T07:44:59.169Z,941.61
2022-12-20T07:46:00.231Z,941.66
2022-12-20T07:47:00.084Z,941.64
2022-12-20T07:48:07.216Z,941.74
2022-12-20T07:49:01.939Z,941.72
2022-12-20T07:50:02.189Z,941.77
2022-12-20T07:51:02.466Z,941.73
2022-12-20T07:52:03.451Z,941.74
2022-12-20T07:53:03.806Z,941.75
2022-12-20T07:54:04.468Z,941.8
2022-12-20T07:55:05.271Z,941.78
2022-12-20T07:56:05.917Z,941.74
2022-12-20T07:57:06.317Z,941.76
2022-12-20T07:58:07.139Z,941.75
2022-12-20T07:59:07.351Z,941.71
2022-12-20T08:00:08.284Z,941.75
2022-12-20T08:01:09.288Z,941.74
2022-12-20T08:02:09.602Z,941.75
2022-12-20T08:03:10.408Z,941.74
2022-12-20T08:04:10.369Z,941.76
2022-12-20T08:05:10.631Z,941.77
2022-12-20T08:06:11.132Z,941.75
2022-12-20T08:07:12.053Z,941.73
2022-12-20T08:08:13.046Z,941.7
2022-12-20T08:09:13.961Z,941.71
2022-12-20T08:10:15.045Z,941.7
2022-12-20T08:11:15.670Z,941.67
2022-12-20T08:12:16.340Z,941.64
2022-12-20T08:13:16.894Z,941.67
2022-12-20T08:14:17.843Z,941.61
2022-12-20T08:15:18.844Z,941.65
2022-12-20T08:16:19.402Z,941.58
2022-12-20T08:17:20.377Z,941.6
2022-12-20T08:18:21.059Z,941.59
2022-12-20T08:19:25.546Z,941.56
2022-12-20T08:20:22.140Z,941.53
2022-12-20T08:21:22.363Z,941.52
2022-12-20T08:22:22.591Z,941.52
2022-12-20T08:23:23.555Z,941.5
2022-12-20T08:24:24.613Z,941.46
2022-12-20T08:25:24.569Z,941.45
2022-12-20T08:26:25.043Z,941.43
2022-12-20T08:27:25.552Z,941.46
2022-12-20T08:28:25.815Z,941.43
2022-12-20T08:29:26.313Z,941.43
2022-12-20T08:30:27.402Z,941.46
2022-12-20T08:31:28.411Z,941.41
2022-12-20T08:32:28.782Z,941.45
2022-12-20T08:33:29.017Z,941.46
2022-12-20T08:34:29.228Z,941.41
2022-12-20T08:35:29.481Z,941.43
2022-12-20T08:36:30.218Z,941.46
2022-12-20T08:37:30.440Z,941.45
2022-12-20T08:38:30.723Z,941.49
2022-12-20T08:39:30.919Z,941.53
2022-12-20T08:40:31.590Z,941.51
2022-12-20T08:41:31.878Z,941.47
2022-12-20T08:42:32.091Z,941.48
2022-12-20T08:43:32.719Z,941.53
2022-12-20T08:44:33.135Z,941.52
2022-12-20T08:45:34.063Z,941.56
2022-12-20T08:46:35.013Z,941.5
2022-12-20T08:47:35.868Z,941.45
2022-12-20T08:48:36.539Z,941.47
2022-12-20T08:49:40.040Z,941.4
2022-12-20T08:50:37.754Z,941.36
2022-12-20T08:51:38.316Z,941.36
2022-12-20T08:52:39.346Z,941.34
2022-12-20T08:53:40.311Z,941.39
2022-12-20T08:54:41.237Z,941.39
2022-12-20T08:55:42.154Z,941.43
2022-12-20T08:56:43.219Z,941.4
2022-12-20T08:57:44.181Z,941.46
2022-12-20T08:58:45.173Z,941.44
2022-12-20T08:59:46.164Z,941.4
2022-12-20T09:00:46.380Z,941.43
2022-12-20T09:01:47.132Z,941.37
2022-12-20T09:02:48.182Z,941.38
2022-12-20T09:03:48.416Z,941.38
2022-12-20T09:04:48.529Z,941.37
2022-12-20T09:05:48.732Z,941.37
2022-12-20T09:06:49.448Z,941.29
2022-12-20T09:07:50.409Z,941.31
2022-12-20T09:08:50.946Z,941.32
2022-12-20T09:09:51.623Z,941.31
2022-12-20T09:10:52.031Z,941.32
2022-12-20T09:11:52.551Z,941.32
2022-12-20T09:12:52.773Z,941.29
2022-12-20T09:13:53.035Z,941.32
2022-12-20T09:14:53.722Z,941.31
2022-12-20T09:15:54.303Z,941.33
2022-12-20T09:16:54.702Z,941.31
2022-12-20T09:17:54.938Z,941.34
2022-12-20T09:18:59.300Z,941.35
2022-12-20T09:19:56.035Z,941.32
2022-12-20T09:20:56.731Z,941.3
2022-12-20T09:21:57.397Z,941.29
2022-12-20T09:22:57.958Z,941.31
2022-12-20T09:23:58.629Z,941.27
2022-12-20T09:24:59.179Z,941.24
2022-12-20T09:25:59.584Z,941.32
2022-12-20T09:26:59.876Z,941.26
2022-12-20T09:28:00.121Z,941.26
2022-12-20T09:29:00.675Z,941.27
2022-12-20T09:30:01.578Z,941.18
2022-12-20T09:31:01.841Z,941.24
2022-12-20T09:32:02.521Z,941.21
2022-12-20T09:33:07.076Z,941.22
2022-12-20T09:34:04.197Z,941.26
2022-12-20T09:35:04.405Z,941.28
2022-12-20T09:36:05.340Z,941.26
2022-12-20T09:37:06.113Z,941.27
2022-12-20T09:38:06.666Z,941.24
2022-12-20T09:39:07.446Z,941.3
2022-12-20T09:40:07.665Z,941.27
2022-12-20T09:41:08.588Z,941.29
2022-12-20T09:42:09.306Z,941.31
2022-12-20T09:43:09.981Z,941.26
2022-12-20T09:44:10.262Z,941.23
2022-12-20T09:45:11.282Z,941.16
2022-12-20T09:46:12.279Z,941.14
2022-12-20T09:47:11.901Z,941.15
2022-12-20T09:48:12.882Z,941.17
2022-12-20T09:49:13.213Z,941.14
2022-12-20T09:50:14.176Z,941.12
2022-12-20T09:51:15.047Z,941.1
2022-12-20T09:52:15.550Z,941.09
2022-12-20T09:53:18.418Z,941.06
2022-12-20T09:54:16.989Z,941.08
2022-12-20T09:55:17.258Z,941.1
2022-12-20T09:56:17.487Z,941.08
2022-12-20T09:57:18.510Z,941.07
2022-12-20T09:58:18.769Z,941.06
2022-12-20T09:59:19.065Z,941.06
2022-12-20T10:00:19.697Z,941.03
2022-12-20T10:01:24.863Z,941.03
2022-12-20T10:02:54.187Z,941.03
2022-12-20T10:03:23.402Z,941.05
2022-12-20T10:04:24.204Z,941.02
2022-12-20T10:05:24.631Z,941
2022-12-20T10:06:24.861Z,941.01
2022-12-20T10:07:25.213Z,940.97
2022-12-20T10:08:26.147Z,940.98
2022-12-20T10:09:26.388Z,940.97
2022-12-20T10:10:26.920Z,940.92
2022-12-20T10:11:28.711Z,940.87
2022-12-20T10:12:27.506Z,940.89
2022-12-20T10:13:28.499Z,940.85
2022-12-20T10:14:29.041Z,940.85
2022-12-20T10:15:29.429Z,940.86
2022-12-20T10:16:30.251Z,940.83
2022-12-20T10:17:32.667Z,940.8
2022-12-20T10:18:31.748Z,940.83
2022-12-20T10:19:32.692Z,940.85
2022-12-20T10:20:33.215Z,940.87
2022-12-20T10:21:33.916Z,940.89
2022-12-20T10:22:34.158Z,940.84
2022-12-20T10:23:34.394Z,940.81
2022-12-20T10:24:35.346Z,940.8
2022-12-20T10:25:36.305Z,940.82
2022-12-20T10:26:36.662Z,940.78
2022-12-20T10:27:36.845Z,940.71
2022-12-20T10:28:37.523Z,940.72
2022-12-20T10:29:38.306Z,940.72
2022-12-20T10:30:39.256Z,940.7
2022-12-20T10:31:39.465Z,940.73
2022-12-20T10:32:40.102Z,940.73
2022-12-20T10:33:40.618Z,940.74
2022-12-20T10:34:45.188Z,940.75
2022-12-20T10:35:41.201Z,940.74
2022-12-20T10:36:41.718Z,940.74
2022-12-20T10:37:59.992Z,940.73
2022-12-20T10:38:42.633Z,940.76
2022-12-20T10:39:42.876Z,940.76
2022-12-20T10:41:19.179Z,940.73
2022-12-20T10:41:44.373Z,940.71
2022-12-20T10:42:44.904Z,940.71
2022-12-20T10:43:45.920Z,940.66
2022-12-20T10:44:46.190Z,940.64
2022-12-20T10:45:46.738Z,940.59
2022-12-20T10:46:47.821Z,940.58
2022-12-20T10:47:48.456Z,940.57
2022-12-20T10:48:49.426Z,940.53
2022-12-20T10:49:50.447Z,940.54
2022-12-20T10:50:50.648Z,940.48
2022-12-20T10:51:51.702Z,940.37
2022-12-20T10:52:52.488Z,940.34
2022-12-20T10:53:52.995Z,940.34
2022-12-20T10:54:53.534Z,940.37
2022-12-20T10:55:54.460Z,940.33
2022-12-20T10:56:55.405Z,940.33
2022-12-20T10:57:56.007Z,940.28
2022-12-20T10:58:57.027Z,940.27
2022-12-20T10:59:57.750Z,940.2
2022-12-20T11:00:58.021Z,940.15
2022-12-20T11:01:58.491Z,940.15
2022-12-20T11:02:59.041Z,940.09
2022-12-20T11:03:59.130Z,940.04
2022-12-20T11:05:00.008Z,940.05
2022-12-20T11:06:00.300Z,940.01
2022-12-20T11:07:00.811Z,940.03
2022-12-20T11:08:42.947Z,939.95
2022-12-20T11:09:37.514Z,939.92
2022-12-20T11:10:37.808Z,939.96
2022-12-20T11:11:38.084Z,939.94
2022-12-20T11:12:38.629Z,939.98
2022-12-20T11:13:39.266Z,940.02
2022-12-20T11:14:40.194Z,939.98
2022-12-20T11:15:40.589Z,939.95
2022-12-20T11:16:40.963Z,939.93
2022-12-20T11:17:41.861Z,939.86
2022-12-20T11:18:42.199Z,939.84
2022-12-20T11:19:42.901Z,939.85
2022-12-20T11:20:43.171Z,939.86
2022-12-20T11:21:43.407Z,939.85
2022-12-20T11:22:43.640Z,939.82
2022-12-20T11:23:44.616Z,939.83
2022-12-20T11:24:45.250Z,939.83
2022-12-20T11:25:45.938Z,939.84
2022-12-20T11:26:46.318Z,939.76
2022-12-20T11:27:47.249Z,939.74
2022-12-20T11:28:48.330Z,939.75
2022-12-20T11:29:49.343Z,939.71
2022-12-20T11:30:49.621Z,939.7
2022-12-20T11:31:50.095Z,939.7
2022-12-20T11:32:50.760Z,939.66
2022-12-20T11:33:51.710Z,939.6
2022-12-20T11:34:51.956Z,939.61
2022-12-20T11:35:52.494Z,939.58
2022-12-20T11:36:52.894Z,939.56
2022-12-20T11:37:53.114Z,939.54
2022-12-20T11:38:54.157Z,939.53
2022-12-20T11:39:55.134Z,939.49
2022-12-20T11:40:55.402Z,939.44
2022-12-20T11:41:56.384Z,939.42
2022-12-20T11:42:56.602Z,939.42
2022-12-20T11:44:23.716Z,939.42
2022-12-20T11:45:06.818Z,939.39
2022-12-20T11:45:59.188Z,939.38
2022-12-20T11:46:59.892Z,939.37
2022-12-20T11:48:00.576Z,939.32
2022-12-20T11:49:01.213Z,939.32
2022-12-20T11:50:01.631Z,939.32
2022-12-20T11:51:02.605Z,939.31
2022-12-20T11:52:03.559Z,939.3
2022-12-20T11:53:03.798Z,939.25
2022-12-20T11:54:04.758Z,939.26
2022-12-20T11:55:04.975Z,939.22
2022-12-20T11:56:05.271Z,939.21
2022-12-20T11:57:05.491Z,939.19
2022-12-20T11:58:21.553Z,939.19
2022-12-20T11:59:09.655Z,939.19
2022-12-20T12:00:09.982Z,939.16
2022-12-20T12:01:10.283Z,939.15
2022-12-20T12:02:10.953Z,939.09
2022-12-20T12:03:11.235Z,939.12
2022-12-20T12:04:11.658Z,939.08
2022-12-20T12:05:11.917Z,939.1
2022-12-20T12:06:12.318Z,939.05
2022-12-20T12:07:12.580Z,939.05
2022-12-20T12:08:17.918Z,939.03
2022-12-20T12:09:13.629Z,939
2022-12-20T12:10:14.157Z,939
2022-12-20T12:11:32.229Z,938.98
2022-12-20T12:12:21.794Z,938.97
2022-12-20T12:13:22.524Z,938.97
2022-12-20T12:14:23.511Z,938.94
2022-12-20T12:15:23.779Z,938.9
2022-12-20T12:16:24.867Z,938.88
2022-12-20T12:17:25.653Z,938.92
2022-12-20T12:18:26.184Z,938.9
2022-12-20T12:19:27.170Z,938.95
2022-12-20T12:20:27.244Z,938.98
2022-12-20T12:21:27.510Z,938.96
2022-12-20T12:22:27.746Z,938.98
2022-12-20T12:23:28.006Z,938.96
2022-12-20T12:24:28.375Z,938.94
2022-12-20T12:25:29.291Z,938.9
2022-12-20T12:26:29.556Z,938.92
2022-12-20T12:27:30.458Z,938.92
2022-12-20T12:28:30.742Z,938.93
2022-12-20T12:29:31.804Z,938.96
2022-12-20T12:30:32.586Z,938.95
2022-12-20T12:31:32.923Z,938.93
2022-12-20T12:32:33.664Z,938.95
2022-12-20T12:33:38.365Z,938.95
2022-12-20T12:34:34.776Z,938.97
2022-12-20T12:35:35.759Z,938.92
2022-12-20T12:36:36.079Z,938.94
2022-12-20T12:37:36.404Z,938.9
2022-12-20T12:38:36.514Z,938.88
2022-12-20T12:39:37.506Z,938.9